Time;durP1;ratioP1;P1;durP2;ratioP2;P2;SDS_P1;SDS_P2;PMS_P1;PMS_P2;Temp;Humidity;BMP_temperature;BMP_pressure;BME280_temperature;BME280_humidity;BME280_pressure;Samples;Min_cycle;Max_cycle;Signal;HPM_P1;HPM_P2
2021/12/15 00:00:50;;;;;;;;;;;;;;;15.30;67.11;102481.47;1052702;28;1859;-58
2021/12/15 00:01:40;;;;;;;;;;;;;;;15.32;66.92;102481.38;1053219;28;931;-58
2021/12/15 00:02:30;;;;;;;;;;;;;;;15.33;66.86;102480.41;1053455;28;778;-56
2021/12/15 00:03:21;;;;;;;;;;;;;;;15.33;67.12;102477.72;1053881;28;823;-58
2021/12/15 00:04:11;;;;;;;;;;;;;;;15.33;66.91;102475.91;1049691;28;617;-58
2021/12/15 00:05:02;;;;;;;;;;;;;;;15.32;67.15;102478.69;1048930;28;833;-58
2021/12/15 00:05:52;;;;;;;;;;;;;;;15.31;67.45;102471.59;1049071;28;940;-56
2021/12/15 00:06:43;;;;;;;;;;;;;;;15.31;67.32;102472.44;1048992;28;1677;-58
2021/12/15 00:07:33;;;;;;;;;;;;;;;15.31;67.40;102471.59;1049066;28;714;-58
2021/12/15 00:08:23;;;;;;;;;;;;;;;15.30;67.23;102470.72;1049006;28;810;-58
2021/12/15 00:09:14;;;;;;;;;;;;;;;15.32;67.33;102474.19;1048639;28;1693;-58
2021/12/15 00:10:04;;;;;;;;;;;;;;;15.33;67.08;102470.53;1048460;28;1842;-58
2021/12/15 00:10:55;;;;;;;;;;;;;;;15.34;67.03;102471.41;1049196;28;2148;-58
2021/12/15 00:11:46;;;;;;;;;;;;;;;15.34;67.15;102472.28;1050131;28;629;-58
2021/12/15 00:12:36;;;;;;;;;;;;;;;15.35;66.88;102474.00;1049102;28;689;-57
2021/12/15 00:13:27;;;;;;;;;;;;;;;15.35;67.02;102474.00;1049030;28;621;-57
2021/12/15 00:14:17;;;;;;;;;;;;;;;15.33;67.07;102470.53;1047316;28;1873;-57
2021/12/15 00:15:08;;;;;;;;;;;;;;;15.34;67.10;102466.03;1045207;28;641;-56
2021/12/15 00:15:58;;;;;;;;;;;;;;;15.34;67.23;102474.09;1044931;28;725;-58
2021/12/15 00:16:49;;;;;;;;;;;;;;;15.34;67.13;102472.28;1041589;28;1941;-57
2021/12/15 00:17:39;;;;;;;;;;;;;;;15.35;66.88;102474.00;1045918;28;720;-57
2021/12/15 00:18:29;;;;;;;;;;;;;;;15.36;66.80;102474.88;1049530;28;847;-56
2021/12/15 00:19:20;;;;;;;;;;;;;;;15.34;66.95;102472.28;1049134;28;1730;-56
2021/12/15 00:20:10;;;;;;;;;;;;;;;15.35;66.91;102473.16;1045345;28;1976;-58
2021/12/15 00:21:01;;;;;;;;;;;;;;;15.35;67.19;102473.16;1045373;28;2095;-58
2021/12/15 00:21:51;;;;;;;;;;;;;;;15.33;67.28;102470.53;1044407;28;622;-58
2021/12/15 00:22:41;;;;;;;;;;;;;;;15.33;67.15;102469.69;1045051;28;811;-58
2021/12/15 00:23:32;;;;;;;;;;;;;;;15.32;66.95;102471.50;1044890;28;618;-58
2021/12/15 00:24:22;;;;;;;;;;;;;;;15.32;67.34;102465.25;1045457;28;766;-58
2021/12/15 00:25:13;;;;;;;;;;;;;;;15.31;67.08;102469.75;1045469;28;1730;-59
2021/12/15 00:26:03;;;;;;;;;;;;;;;15.31;66.98;102464.38;1046077;28;810;-58
2021/12/15 00:26:54;;;;;;;;;;;;;;;15.30;67.11;102470.72;1045407;28;745;-59
2021/12/15 00:27:44;;;;;;;;;;;;;;;15.32;67.46;102468.81;1045492;28;685;-59
2021/12/15 00:28:34;;;;;;;;;;;;;;;15.33;67.28;102470.53;1044869;28;856;-60
2021/12/15 00:29:25;;;;;;;;;;;;;;;15.34;67.24;102471.41;1044746;28;712;-59
2021/12/15 00:30:15;;;;;;;;;;;;;;;15.33;66.82;102470.53;1044959;28;724;-59
2021/12/15 00:31:06;;;;;;;;;;;;;;;15.33;67.44;102470.53;1048456;28;1851;-59
2021/12/15 00:31:56;;;;;;;;;;;;;;;15.33;66.97;102472.38;1046123;28;862;-59
2021/12/15 00:32:45;;;;;;;;;;;;;;;15.33;67.37;102469.69;1045638;28;1816;-58
2021/12/15 00:33:34;;;;;;;;;;;;;;;15.34;67.15;102469.59;1045920;28;716;-59
2021/12/15 00:34:22;;;;;;;;;;;;;;;15.34;66.95;102476.78;1049217;28;727;-59
2021/12/15 00:35:11;;;;;;;;;;;;;;;15.33;66.88;102472.38;1049567;28;1867;-59
2021/12/15 00:36:00;;;;;;;;;;;;;;;15.33;67.38;102473.22;1050292;28;818;-58
2021/12/15 00:36:50;;;;;;;;;;;;;;;15.33;67.45;102470.53;1049655;28;859;-57
2021/12/15 00:37:41;;;;;;;;;;;;;;;15.32;67.10;102474.19;1049368;28;750;-59
2021/12/15 00:38:31;;;;;;;;;;;;;;;15.30;67.27;102465.34;1049059;28;859;-58
2021/12/15 00:39:22;;;;;;;;;;;;;;;15.32;67.41;102474.19;1048713;28;1859;-57
2021/12/15 00:40:12;;;;;;;;;;;;;;;15.31;67.70;102475.13;1045398;28;1895;-58
2021/12/15 00:41:03;;;;;;;;;;;;;;;15.30;67.11;102476.09;1045834;28;1851;-59
2021/12/15 00:41:53;;;;;;;;;;;;;;;15.29;67.17;102477.91;1044762;28;621;-56
2021/12/15 00:42:43;;;;;;;;;;;;;;;15.29;67.22;102474.34;1045181;28;707;-58
2021/12/15 00:43:34;;;;;;;;;;;;;;;15.30;67.62;102481.47;1046246;28;850;-59
2021/12/15 00:44:24;;;;;;;;;;;;;;;15.30;67.47;102476.09;1046440;28;1870;-60
2021/12/15 00:45:15;;;;;;;;;;;;;;;15.28;67.08;102468.13;1048191;28;1664;-60
2021/12/15 00:46:05;;;;;;;;;;;;;;;15.29;67.25;102474.34;1045418;28;771;-60
2021/12/15 00:46:55;;;;;;;;;;;;;;;15.30;67.16;102486.84;1042091;28;1928;-57
2021/12/15 00:47:46;;;;;;;;;;;;;;;15.31;67.26;102482.31;1044354;28;2002;-59
2021/12/15 00:48:37;;;;;;;;;;;;;;;15.31;67.32;102485.00;1049559;28;652;-59
2021/12/15 00:49:27;;;;;;;;;;;;;;;15.29;67.32;102475.22;1049329;28;764;-59
2021/12/15 00:50:17;;;;;;;;;;;;;;;15.28;67.45;102478.00;1045583;28;1864;-59
2021/12/15 00:51:08;;;;;;;;;;;;;;;15.27;67.36;102476.25;1048913;28;1936;-59
2021/12/15 00:51:58;;;;;;;;;;;;;;;15.27;67.21;102479.81;1048839;28;816;-59
2021/12/15 00:52:49;;;;;;;;;;;;;;;15.27;67.31;102477.13;1049108;28;672;-59
2021/12/15 00:53:39;;;;;;;;;;;;;;;15.28;67.17;102478.00;1048646;28;1717;-59
2021/12/15 00:54:30;;;;;;;;;;;;;;;15.29;67.14;102472.53;1044822;28;613;-59
2021/12/15 00:55:20;;;;;;;;;;;;;;;15.30;67.23;102476.09;1045431;28;692;-58
2021/12/15 00:56:10;;;;;;;;;;;;;;;15.30;67.24;102481.47;1045368;28;774;-59
2021/12/15 00:57:01;;;;;;;;;;;;;;;15.30;67.57;102476.09;1045277;28;837;-59
2021/12/15 00:57:51;;;;;;;;;;;;;;;15.29;67.53;102480.59;1045328;28;924;-59
2021/12/15 00:58:42;;;;;;;;;;;;;;;15.30;67.60;102476.09;1041988;28;1903;-59
2021/12/15 00:59:32;;;;;;;;;;;;;;;15.29;67.15;102477.03;1040942;28;630;-59
2021/12/15 01:00:23;;;;;;;;;;;;;;;15.29;67.35;102479.72;1044537;28;917;-59
2021/12/15 01:01:13;;;;;;;;;;;;;;;15.29;67.28;102474.34;1045429;28;1707;-59
2021/12/15 01:02:03;;;;;;;;;;;;;;;15.29;67.19;102475.22;1044912;28;878;-59
2021/12/15 01:02:54;;;;;;;;;;;;;;;15.30;67.12;102478.78;1044717;28;686;-59
2021/12/15 01:03:44;;;;;;;;;;;;;;;15.29;67.11;102475.22;1048923;28;1821;-59
2021/12/15 01:04:35;;;;;;;;;;;;;;;15.27;67.17;102477.13;1048523;28;633;-59
2021/12/15 01:05:25;;;;;;;;;;;;;;;15.27;67.35;102476.25;1049364;28;730;-59
2021/12/15 01:06:18;;;;;;;;;;;;;;;15.26;67.40;102470.03;1048850;28;739;-59
2021/12/15 01:07:08;;;;;;;;;;;;;;;15.27;67.59;102470.91;1049482;28;809;-59
2021/12/15 01:08:00;;;;;;;;;;;;;;;15.25;66.90;102470.13;1049870;28;891;-58
2021/12/15 01:08:53;;;;;;;;;;;;;;;15.26;67.04;102469.16;1049456;28;648;-57
2021/12/15 01:09:45;;;;;;;;;;;;;;;15.25;67.50;102473.66;1048772;28;1910;-58
2021/12/15 01:10:55;;;;;;;;;;;;;;;15.26;67.52;102471.84;1048986;28;846;-57
2021/12/15 01:12:05;;;;;;;;;;;;;;;15.25;66.93;102468.28;1050010;28;593;-58
2021/12/15 01:20:34;;;;;;;;;;;;;;;15.25;67.17;102473.66;1052720;28;1930;-58
2021/12/15 01:21:25;;;;;;;;;;;;;;;15.25;67.43;102472.81;1049393;28;817;-58
2021/12/15 01:22:15;;;;;;;;;;;;;;;15.24;67.38;102476.44;1049390;28;773;-59
2021/12/15 01:23:07;;;;;;;;;;;;;;;15.25;67.02;102467.44;1049766;28;1788;-58
2021/12/15 01:23:57;;;;;;;;;;;;;;;15.25;67.01;102470.97;1049473;28;752;-58
2021/12/15 01:24:48;;;;;;;;;;;;;;;15.25;66.90;102475.47;1051644;28;1876;-58
2021/12/15 01:25:38;;;;;;;;;;;;;;;15.26;66.87;102470.03;1049748;28;718;-58
2021/12/15 01:26:29;;;;;;;;;;;;;;;15.26;67.02;102466.47;1050173;28;761;-58
2021/12/15 01:27:19;;;;;;;;;;;;;;;15.27;67.23;102471.75;1052898;28;773;-58
2021/12/15 01:28:10;;;;;;;;;;;;;;;15.27;67.22;102476.25;1052766;28;1859;-59
2021/12/15 01:29:00;;;;;;;;;;;;;;;15.26;66.80;102472.72;1052648;28;2004;-59
2021/12/15 01:29:51;;;;;;;;;;;;;;;15.26;67.59;102474.53;1049528;28;1893;-58
2021/12/15 01:30:41;;;;;;;;;;;;;;;15.28;67.34;102478.00;1048349;28;717;-58
2021/12/15 01:31:31;;;;;;;;;;;;;;;15.26;67.46;102475.41;1051992;28;1565;-58
2021/12/15 01:32:22;;;;;;;;;;;;;;;15.26;67.09;102475.41;1052412;28;1997;-58
2021/12/15 01:33:12;;;;;;;;;;;;;;;15.26;67.03;102474.53;1051090;28;1598;-58
2021/12/15 01:34:03;;;;;;;;;;;;;;;15.26;67.07;102485.28;1050557;28;1418;-58
2021/12/15 01:34:53;;;;;;;;;;;;;;;15.26;67.53;102482.59;1052918;28;2021;-58
2021/12/15 01:35:43;;;;;;;;;;;;;;;15.24;67.26;102481.81;1052971;28;724;-58
2021/12/15 01:36:34;;;;;;;;;;;;;;;15.24;67.24;102471.94;1053135;28;688;-58
2021/12/15 01:37:24;;;;;;;;;;;;;;;15.25;67.38;102478.16;1052779;28;696;-59
2021/12/15 01:38:15;;;;;;;;;;;;;;;15.24;67.25;102485.38;1050719;28;2117;-59
2021/12/15 01:39:05;;;;;;;;;;;;;;;15.23;67.28;102475.56;1049434;28;708;-59
2021/12/15 01:39:56;;;;;;;;;;;;;;;15.24;67.66;102477.31;1053099;28;1874;-59
2021/12/15 01:40:46;;;;;;;;;;;;;;;15.25;67.91;102483.53;1052937;28;1815;-59
2021/12/15 01:41:37;;;;;;;;;;;;;;;15.25;67.46;102483.53;1050496;28;1806;-58
2021/12/15 01:42:31;;;;;;;;;;;;;;;15.29;68.48;102479.72;1049418;28;684;-59
2021/12/15 01:43:26;;;;;;;;;;;;;;;15.32;69.10;102474.19;1048044;28;1740;-59
2021/12/15 01:47:25;;;;;;;;;;;;;;;15.29;67.90;102488.66;1048698;28;637;-57
2021/12/15 01:48:16;;;;;;;;;;;;;;;15.29;67.53;102485.97;1048877;28;756;-58
2021/12/15 01:49:06;;;;;;;;;;;;;;;15.28;67.66;102481.56;1048695;28;768;-57
2021/12/15 01:49:56;;;;;;;;;;;;;;;15.28;67.33;102481.56;1048806;28;1894;-58
2021/12/15 01:50:50;;;;;;;;;;;;;;;15.27;67.47;102487.00;1050803;28;2169;-58
2021/12/15 01:51:42;;;;;;;;;;;;;;;15.27;67.65;102482.50;1049490;28;2078;-58
2021/12/15 01:52:32;;;;;;;;;;;;;;;15.27;67.45;102484.31;1049942;28;699;-57
2021/12/15 01:53:23;;;;;;;;;;;;;;;15.26;67.45;102487.97;1048894;28;652;-58
2021/12/15 01:54:13;;;;;;;;;;;;;;;15.26;67.51;102491.50;1049847;28;876;-58
2021/12/15 01:55:04;;;;;;;;;;;;;;;15.26;67.68;102486.13;1046230;28;1954;-58
2021/12/15 01:55:54;;;;;;;;;;;;;;;15.26;67.54;102485.28;1049250;28;1992;-58
2021/12/15 01:56:44;;;;;;;;;;;;;;;15.26;67.03;102480.78;1053173;28;1773;-58
2021/12/15 01:57:35;;;;;;;;;;;;;;;15.27;67.00;102481.63;1052810;28;727;-59
2021/12/15 01:58:25;;;;;;;;;;;;;;;15.26;67.52;102480.78;1049564;28;758;-58
2021/12/15 01:59:16;;;;;;;;;;;;;;;15.26;67.13;102488.81;1046466;28;1850;-58
2021/12/15 02:00:06;;;;;;;;;;;;;;;15.26;66.93;102486.13;1046212;28;663;-58
2021/12/15 02:00:57;;;;;;;;;;;;;;;15.26;67.33;102482.59;1050178;28;648;-58
2021/12/15 02:01:47;;;;;;;;;;;;;;;15.26;67.62;102482.59;1052226;28;1860;-58
2021/12/15 02:02:37;;;;;;;;;;;;;;;15.24;67.38;102492.56;1052786;28;780;-59
2021/12/15 02:03:28;;;;;;;;;;;;;;;15.24;67.34;102493.41;1049452;28;1310;-58
2021/12/15 02:04:21;;;;;;;;;;;;;;;15.24;67.15;102495.25;1047302;28;1684;-58
2021/12/15 02:05:11;;;;;;;;;;;;;;;15.24;67.37;102492.56;1054488;28;692;-58
2021/12/15 02:06:02;;;;;;;;;;;;;;;15.25;67.29;102494.28;1052838;28;708;-56
2021/12/15 02:06:52;;;;;;;;;;;;;;;15.24;67.26;102498.78;1052827;28;829;-58
2021/12/15 02:07:43;;;;;;;;;;;;;;;15.24;67.51;102490.72;1053051;28;718;-58
2021/12/15 02:08:33;;;;;;;;;;;;;;;15.24;67.53;102497.94;1052950;28;613;-58
2021/12/15 02:09:36;;;;;;;;;;;;;;;15.22;67.50;102492.66;1049645;28;707;-57
2021/12/15 02:10:29;;;;;;;;;;;;;;;15.23;67.66;102494.38;1050132;28;671;-57
2021/12/15 02:11:20;;;;;;;;;;;;;;;15.24;67.34;102497.94;1052566;28;1752;-58
2021/12/15 02:12:11;;;;;;;;;;;;;;;15.24;67.45;102497.94;1048655;28;605;-58
2021/12/15 02:13:01;;;;;;;;;;;;;;;15.24;67.11;102495.25;1047976;28;708;-58
2021/12/15 02:13:52;;;;;;;;;;;;;;;15.24;67.51;102498.78;1049363;28;636;-58
2021/12/15 02:14:42;;;;;;;;;;;;;;;15.24;67.63;102509.53;1049222;28;699;-58
2021/12/15 02:15:32;;;;;;;;;;;;;;;15.23;67.89;102499.75;1049222;28;695;-56
2021/12/15 02:16:23;;;;;;;;;;;;;;;15.23;67.48;102497.06;1050086;28;1728;-58
2021/12/15 02:17:13;;;;;;;;;;;;;;;15.22;67.72;102500.72;1049798;28;759;-58
2021/12/15 02:18:04;;;;;;;;;;;;;;;15.23;67.41;102507.81;1049912;28;701;-58
2021/12/15 02:18:54;;;;;;;;;;;;;;;15.22;67.22;102498.03;1049772;28;701;-59
2021/12/15 02:19:44;;;;;;;;;;;;;;;15.23;67.27;102506.94;1045420;28;688;-58
2021/12/15 02:20:37;;;;;;;;;;;;;;;15.23;67.40;102501.56;1045612;28;794;-57
2021/12/15 02:21:27;;;;;;;;;;;;;;;15.22;67.17;102500.72;1050053;28;1478;-56
2021/12/15 02:22:18;;;;;;;;;;;;;;;15.23;67.45;102499.75;1048752;28;661;-58
2021/12/15 02:23:08;;;;;;;;;;;;;;;15.22;67.28;102500.72;1049227;28;535;-58
2021/12/15 02:24:00;;;;;;;;;;;;;;;15.22;67.27;102494.50;1049277;28;645;-57
2021/12/15 02:24:52;;;;;;;;;;;;;;;15.23;67.77;102496.19;1048097;28;633;-58
2021/12/15 02:25:42;;;;;;;;;;;;;;;15.23;67.17;102499.75;1049299;28;924;-58
2021/12/15 02:26:35;;;;;;;;;;;;;;;15.23;67.40;102498.88;1049442;28;752;-59
2021/12/15 02:27:31;;;;;;;;;;;;;;;15.23;67.02;102493.50;1048257;28;769;-58
2021/12/15 02:28:22;;;;;;;;;;;;;;;15.23;67.32;102501.56;1048248;28;794;-58
2021/12/15 02:29:16;;;;;;;;;;;;;;;15.23;67.68;102501.56;1049880;28;1609;-59
2021/12/15 02:30:19;;;;;;;;;;;;;;;15.24;67.45;102500.59;1054067;28;1890;-58
2021/12/15 02:31:24;;;;;;;;;;;;;;;15.22;67.71;102506.09;1052969;28;703;-58
2021/12/15 02:37:36;;;;;;;;;;;;;;;15.22;67.61;102499.88;1044901;28;1909;-58
2021/12/15 02:38:07;;;;;;;;;;;;;;;15.22;67.52;102497.19;1045150;28;935;-57
2021/12/15 02:39:00;;;;;;;;;;;;;;;15.22;67.50;102497.19;1044880;28;771;-56
2021/12/15 02:39:51;;;;;;;;;;;;;;;15.21;67.43;102506.19;1047312;28;1655;-57
2021/12/15 02:40:41;;;;;;;;;;;;;;;15.21;67.51;102499.00;1049793;28;794;-57
2021/12/15 02:41:32;;;;;;;;;;;;;;;15.21;67.41;102500.81;1049526;28;1842;-56
2021/12/15 02:42:22;;;;;;;;;;;;;;;15.20;67.56;102497.25;1048563;28;829;-57
2021/12/15 02:43:13;;;;;;;;;;;;;;;15.21;67.36;102500.81;1048664;28;759;-56
2021/12/15 02:44:03;;;;;;;;;;;;;;;15.19;67.93;102506.28;1048525;28;998;-57
2021/12/15 02:44:53;;;;;;;;;;;;;;;15.18;67.52;102503.69;1048635;28;723;-58
2021/12/15 02:45:44;;;;;;;;;;;;;;;15.19;67.73;102505.41;1049544;28;710;-56
2021/12/15 02:46:34;;;;;;;;;;;;;;;15.19;67.21;102502.72;1046098;28;824;-57
2021/12/15 02:47:25;;;;;;;;;;;;;;;15.19;67.53;102506.28;1044610;28;636;-55
2021/12/15 02:48:15;;;;;;;;;;;;;;;15.20;67.63;102501.78;1045545;28;723;-56
2021/12/15 02:49:05;;;;;;;;;;;;;;;15.21;67.75;102508.88;1046019;28;1948;-56
2021/12/15 02:49:56;;;;;;;;;;;;;;;15.19;67.73;102500.91;1055027;28;1874;-56
2021/12/15 02:50:46;;;;;;;;;;;;;;;15.20;67.68;102501.78;1053895;28;1925;-57
2021/12/15 02:51:37;;;;;;;;;;;;;;;15.20;67.44;102501.78;1050771;28;1788;-56
2021/12/15 02:52:27;;;;;;;;;;;;;;;15.20;67.51;102496.41;1048740;28;937;-58
2021/12/15 02:53:17;;;;;;;;;;;;;;;15.21;67.45;102500.81;1048875;28;761;-56
2021/12/15 02:54:08;;;;;;;;;;;;;;;15.21;67.18;102503.50;1049160;28;736;-57
2021/12/15 02:54:58;;;;;;;;;;;;;;;15.20;67.36;102496.41;1051787;28;1890;-57
2021/12/15 02:55:49;;;;;;;;;;;;;;;15.21;67.31;102498.13;1053666;28;645;-56
2021/12/15 02:56:39;;;;;;;;;;;;;;;15.21;67.56;102499.00;1049923;28;721;-56
2021/12/15 02:57:30;;;;;;;;;;;;;;;15.22;67.36;102494.50;1050005;28;641;-58
2021/12/15 02:58:21;;;;;;;;;;;;;;;15.22;67.66;102499.88;1050157;28;1527;-58
2021/12/15 02:59:14;;;;;;;;;;;;;;;15.22;67.14;102502.56;1050216;28;1868;-58
2021/12/15 03:00:16;;;;;;;;;;;;;;;15.22;67.13;102505.22;1049885;28;697;-59
2021/12/15 03:01:14;;;;;;;;;;;;;;;15.21;67.00;102504.38;1051921;28;1710;-59
2021/12/15 03:02:51;;;;;;;;;;;;;;;15.21;67.41;102501.69;1049995;28;844;-59
2021/12/15 03:05:12;;;;;;;;;;;;;;;15.20;67.19;102497.25;1038779;28;874;-59
2021/12/15 03:06:18;;;;;;;;;;;;;;;15.22;67.50;102507.91;1037737;28;749;-59
2021/12/15 03:07:16;;;;;;;;;;;;;;;15.21;67.23;102503.50;1034188;28;1058;-59
2021/12/15 03:08:17;;;;;;;;;;;;;;;15.21;67.64;102504.38;1045980;28;735;-59
2021/12/15 03:09:35;;;;;;;;;;;;;;;15.21;67.12;102503.50;1050418;28;683;-59
2021/12/15 03:16:04;;;;;;;;;;;;;;;15.18;67.61;102501.00;1052690;28;1859;-59
2021/12/15 03:16:54;;;;;;;;;;;;;;;15.18;67.48;102504.53;1053979;28;636;-59
2021/12/15 03:17:45;;;;;;;;;;;;;;;15.18;67.53;102498.31;1054133;28;897;-59
2021/12/15 03:18:35;;;;;;;;;;;;;;;15.17;67.26;102500.13;1050235;28;755;-58
2021/12/15 03:19:26;;;;;;;;;;;;;;;15.18;67.07;102507.22;1049164;28;707;-59
2021/12/15 03:20:18;;;;;;;;;;;;;;;15.18;67.60;102503.69;1052462;28;1913;-59
2021/12/15 03:21:09;;;;;;;;;;;;;;;15.19;67.60;102505.41;1050061;28;754;-59
2021/12/15 03:21:59;;;;;;;;;;;;;;;15.18;67.44;102503.69;1052102;28;1678;-59
2021/12/15 03:22:51;;;;;;;;;;;;;;;15.17;67.22;102508.19;1052723;28;1607;-59
2021/12/15 03:23:47;;;;;;;;;;;;;;;15.18;67.21;102509.03;1054655;28;695;-59
2021/12/15 03:24:37;;;;;;;;;;;;;;;15.18;67.28;102509.03;1051222;28;2038;-59
2021/12/15 03:25:30;;;;;;;;;;;;;;;15.16;67.42;102506.44;1048928;28;703;-59
2021/12/15 03:26:23;;;;;;;;;;;;;;;15.17;67.59;102512.69;1049836;28;862;-59
2021/12/15 03:27:19;;;;;;;;;;;;;;;15.15;67.62;102504.72;1049785;28;1030;-58
2021/12/15 03:34:10;;;;;;;;;;;;;;;15.15;67.69;102506.53;1053468;28;708;-58
2021/12/15 03:35:20;;;;;;;;;;;;;;;15.15;67.58;102503.84;1053924;28;1783;-58
2021/12/15 03:36:12;;;;;;;;;;;;;;;15.15;67.54;102509.22;1053319;28;2219;-58
2021/12/15 03:37:08;;;;;;;;;;;;;;;15.12;67.34;102504.00;1053607;28;1711;-58
2021/12/15 03:37:58;;;;;;;;;;;;;;;15.12;67.89;102501.34;1053114;28;781;-57
2021/12/15 03:38:49;;;;;;;;;;;;;;;15.12;67.23;102504.00;1053277;28;994;-58
2021/12/15 03:39:41;;;;;;;;;;;;;;;15.12;67.50;102506.69;1049813;28;1713;-58
2021/12/15 03:40:37;;;;;;;;;;;;;;;15.13;67.21;102505.75;1049672;28;750;-59
2021/12/15 03:41:27;;;;;;;;;;;;;;;15.15;67.34;102514.59;1050047;28;1818;-60
2021/12/15 03:42:19;;;;;;;;;;;;;;;15.14;67.18;102513.72;1048672;28;1016;-58
2021/12/15 03:43:10;;;;;;;;;;;;;;;15.14;67.32;102511.03;1053161;28;1094;-58
2021/12/15 03:44:00;;;;;;;;;;;;;;;15.13;67.85;102506.63;1054597;28;714;-58
2021/12/15 03:44:51;;;;;;;;;;;;;;;15.12;67.49;102507.56;1054569;28;950;-58
2021/12/15 03:45:41;;;;;;;;;;;;;;;15.13;67.56;102503.94;1054484;28;684;-58
2021/12/15 03:46:32;;;;;;;;;;;;;;;15.13;67.12;102511.13;1054594;28;684;-58
2021/12/15 03:47:22;;;;;;;;;;;;;;;15.14;67.50;102518.22;1046477;28;1886;-58
2021/12/15 03:48:13;;;;;;;;;;;;;;;15.14;67.20;102518.22;1045267;28;651;-60
2021/12/15 03:49:04;;;;;;;;;;;;;;;15.13;67.35;102511.13;1050388;28;785;-59
2021/12/15 03:49:54;;;;;;;;;;;;;;;15.13;66.91;102517.34;1050235;28;1913;-60
2021/12/15 03:50:45;;;;;;;;;;;;;;;15.13;67.38;102511.13;1049304;28;703;-59
2021/12/15 03:51:35;;;;;;;;;;;;;;;15.13;67.68;102511.13;1050386;28;1653;-59
2021/12/15 03:52:26;;;;;;;;;;;;;;;15.13;66.92;102511.13;1053997;28;608;-59
2021/12/15 03:53:16;;;;;;;;;;;;;;;15.11;67.58;102511.19;1053831;28;1898;-59
2021/12/15 03:54:06;;;;;;;;;;;;;;;15.13;67.37;102519.19;1053336;28;798;-59
2021/12/15 03:54:57;;;;;;;;;;;;;;;15.12;67.23;102521.00;1053162;28;1719;-59
2021/12/15 03:55:47;;;;;;;;;;;;;;;15.13;67.25;102516.50;1045963;28;676;-59
2021/12/15 03:56:40;;;;;;;;;;;;;;;15.12;67.38;102510.25;1044134;28;693;-59
2021/12/15 03:57:31;;;;;;;;;;;;;;;15.13;67.49;102513.81;1049085;28;1796;-58
2021/12/15 03:58:23;;;;;;;;;;;;;;;15.13;67.25;102511.13;1049114;28;792;-59
2021/12/15 03:59:14;;;;;;;;;;;;;;;15.12;67.40;102510.25;1050267;28;810;-59
2021/12/15 04:00:04;;;;;;;;;;;;;;;15.12;67.29;102515.63;1049124;28;743;-59
2021/12/15 04:00:55;;;;;;;;;;;;;;;15.12;67.11;102510.25;1048545;28;656;-59
2021/12/15 04:01:45;;;;;;;;;;;;;;;15.12;67.53;102504.00;1051414;28;1816;-59
2021/12/15 04:02:35;;;;;;;;;;;;;;;15.12;67.38;102512.06;1049444;28;734;-59
2021/12/15 04:03:26;;;;;;;;;;;;;;;15.11;67.44;102508.53;1046928;28;1985;-59
2021/12/15 04:04:16;;;;;;;;;;;;;;;15.11;67.33;102507.66;1050826;28;706;-59
2021/12/15 04:05:07;;;;;;;;;;;;;;;15.11;67.43;102513.03;1048711;28;688;-59
2021/12/15 04:05:57;;;;;;;;;;;;;;;15.10;67.28;102505.91;1048876;28;781;-59
2021/12/15 04:06:47;;;;;;;;;;;;;;;15.10;67.34;102512.16;1048595;28;697;-59
2021/12/15 04:07:38;;;;;;;;;;;;;;;15.11;67.11;102510.34;1048680;28;953;-59
2021/12/15 04:08:28;;;;;;;;;;;;;;;15.11;67.13;102513.03;1046519;28;703;-59
2021/12/15 04:09:19;;;;;;;;;;;;;;;15.11;67.21;102513.03;1048197;28;1933;-60
2021/12/15 04:10:09;;;;;;;;;;;;;;;15.10;67.54;102503.22;1049478;28;1967;-59
2021/12/15 04:11:00;;;;;;;;;;;;;;;15.09;67.23;102515.78;1049147;28;648;-59
2021/12/15 04:11:52;;;;;;;;;;;;;;;15.10;67.24;102516.66;1051687;28;1795;-60
2021/12/15 04:12:43;;;;;;;;;;;;;;;15.09;67.81;102520.28;1049119;28;697;-59
2021/12/15 04:13:33;;;;;;;;;;;;;;;15.11;68.00;102513.88;1049824;28;762;-59
2021/12/15 04:14:28;;;;;;;;;;;;;;;15.10;67.97;102511.28;1050963;28;2012;-59
2021/12/15 04:15:27;;;;;;;;;;;;;;;15.09;67.85;102512.25;1049011;28;1778;-59
2021/12/15 04:16:42;;;;;;;;;;;;;;;15.09;67.70;102520.28;1048582;28;923;-59
2021/12/15 04:17:34;;;;;;;;;;;;;;;15.09;67.29;102512.25;1054387;28;683;-58
2021/12/15 04:18:24;;;;;;;;;;;;;;;15.08;67.47;102529.31;1053111;28;915;-58
2021/12/15 04:19:15;;;;;;;;;;;;;;;15.08;67.60;102523.94;1051266;28;1913;-58
2021/12/15 04:20:05;;;;;;;;;;;;;;;15.08;67.70;102529.31;1049585;28;792;-59
2021/12/15 04:20:56;;;;;;;;;;;;;;;15.08;67.63;102529.31;1049683;28;757;-58
2021/12/15 04:21:46;;;;;;;;;;;;;;;15.09;67.76;102531.03;1052374;28;1920;-58
2021/12/15 04:22:36;;;;;;;;;;;;;;;15.06;67.30;102521.34;1053281;28;652;-58
2021/12/15 04:23:27;;;;;;;;;;;;;;;15.07;67.28;102527.56;1053332;28;700;-58
2021/12/15 04:24:17;;;;;;;;;;;;;;;15.06;67.44;102532.06;1053370;28;1676;-57
2021/12/15 04:25:08;;;;;;;;;;;;;;;15.08;67.42;102521.25;1053897;28;655;-58
2021/12/15 04:25:59;;;;;;;;;;;;;;;15.08;67.42;102534.69;1049216;28;691;-57
2021/12/15 04:26:50;;;;;;;;;;;;;;;15.08;67.50;102524.81;1045804;28;810;-58
2021/12/15 04:27:40;;;;;;;;;;;;;;;15.07;67.84;102522.19;1049826;28;1978;-58
2021/12/15 04:28:33;;;;;;;;;;;;;;;15.07;67.56;102522.19;1052467;28;756;-58
2021/12/15 04:29:27;;;;;;;;;;;;;;;15.07;67.84;102527.56;1051613;28;1808;-58
2021/12/15 04:30:18;;;;;;;;;;;;;;;15.07;67.58;102532.94;1046319;28;623;-58
2021/12/15 04:31:08;;;;;;;;;;;;;;;15.06;67.58;102525.84;1045741;28;682;-58
2021/12/15 04:31:59;;;;;;;;;;;;;;;15.05;67.52;102534.88;1050016;28;683;-58
2021/12/15 04:32:49;;;;;;;;;;;;;;;15.04;67.38;102528.63;1050193;28;885;-58
2021/12/15 04:33:39;;;;;;;;;;;;;;;15.06;67.15;102531.22;1049558;28;679;-59
2021/12/15 04:34:30;;;;;;;;;;;;;;;15.07;67.14;102527.56;1049174;28;711;-58
2021/12/15 04:35:20;;;;;;;;;;;;;;;15.07;67.72;102530.25;1053343;28;2378;-59
2021/12/15 04:36:11;;;;;;;;;;;;;;;15.05;67.02;102530.34;1053208;28;682;-59
2021/12/15 04:37:01;;;;;;;;;;;;;;;15.06;67.42;102533.88;1053169;28;749;-59
2021/12/15 04:37:52;;;;;;;;;;;;;;;15.06;67.63;102528.53;1053076;28;859;-59
2021/12/15 04:38:42;;;;;;;;;;;;;;;15.05;67.33;102533.03;1053378;28;680;-58
2021/12/15 04:39:32;;;;;;;;;;;;;;;15.05;67.53;102535.72;1053128;28;645;-59
2021/12/15 04:40:23;;;;;;;;;;;;;;;15.04;67.29;102538.50;1047990;28;1726;-59
2021/12/15 04:41:15;;;;;;;;;;;;;;;15.03;67.38;102531.41;1046334;28;816;-59
2021/12/15 04:42:06;;;;;;;;;;;;;;;15.03;67.24;102534.97;1046819;28;1409;-60
2021/12/15 04:42:58;;;;;;;;;;;;;;;15.03;67.37;102539.47;1049607;28;747;-60
2021/12/15 04:43:56;;;;;;;;;;;;;;;15.03;67.30;102540.34;1048460;28;656;-60
2021/12/15 04:44:46;;;;;;;;;;;;;;;15.04;67.38;102538.50;1049003;28;629;-60
2021/12/15 04:45:37;;;;;;;;;;;;;;;15.03;66.96;102536.78;1049510;28;890;-59
2021/12/15 04:46:27;;;;;;;;;;;;;;;15.03;67.39;102534.09;1049512;28;617;-60
2021/12/15 04:47:18;;;;;;;;;;;;;;;15.03;67.60;102537.66;1049553;28;742;-60
2021/12/15 04:48:08;;;;;;;;;;;;;;;15.02;67.40;102543.09;1049696;28;783;-60
2021/12/15 04:48:59;;;;;;;;;;;;;;;15.02;67.38;102540.41;1051355;28;725;-60
2021/12/15 04:49:50;;;;;;;;;;;;;;;15.03;66.97;102536.78;1049878;28;1957;-60
2021/12/15 04:50:40;;;;;;;;;;;;;;;15.00;67.56;102542.31;1049451;28;637;-60
2021/12/15 04:51:31;;;;;;;;;;;;;;;15.00;67.36;102534.25;1049552;28;1758;-61
2021/12/15 04:52:21;;;;;;;;;;;;;;;15.00;67.18;102542.31;1049659;28;597;-60
2021/12/15 04:53:12;;;;;;;;;;;;;;;14.98;67.27;102541.53;1048342;28;794;-60
2021/12/15 04:54:02;;;;;;;;;;;;;;;14.97;67.59;102547.84;1048461;28;863;-60
2021/12/15 04:54:53;;;;;;;;;;;;;;;14.97;66.98;102543.34;1052350;28;627;-60
2021/12/15 04:55:44;;;;;;;;;;;;;;;14.99;67.04;102543.25;1053635;28;876;-60
2021/12/15 04:56:34;;;;;;;;;;;;;;;14.99;66.95;102544.13;1053805;28;624;-60
2021/12/15 04:57:25;;;;;;;;;;;;;;;15.01;67.47;102544.91;1053644;28;628;-60
2021/12/15 04:58:15;;;;;;;;;;;;;;;15.02;67.21;102545.78;1052083;28;1904;-60
2021/12/15 04:59:05;;;;;;;;;;;;;;;15.01;67.18;102542.22;1053731;28;620;-60
2021/12/15 04:59:56;;;;;;;;;;;;;;;15.03;67.66;102547.53;1052231;28;2031;-60